Time;durP1;ratioP1;P1;durP2;ratioP2;P2;SDS_P1;SDS_P2;PMS_P1;PMS_P2;Temp;Humidity;BMP_temperature;BMP_pressure;BME280_temperature;BME280_humidity;BME280_pressure;Samples;Min_cycle;Max_cycle;Signal;HPM_P1;HPM_P2
2024/01/04 00:00:00;;;;;;;80.13;30.07;;;;;;;-144.30;100.00;86760.44;5070760;28;20228;-58
2024/01/04 00:02:30;;;;;;;71.03;30.43;;;;;;;-144.30;100.00;86760.44;5070280;28;20196;-58
2024/01/04 00:04:57;;;;;;;66.87;29.00;;;;;;;-144.30;100.00;86760.44;5071005;28;20192;-58
2024/01/04 00:07:24;;;;;;;79.90;28.73;;;;;;;-144.30;100.00;86746.50;5070884;28;20196;-57
2024/01/04 00:09:51;;;;;;;74.53;27.97;;;;;;;-144.30;100.00;86754.47;5071297;28;20218;-58
2024/01/04 00:12:18;;;;;;;75.00;27.90;;;;;;;-144.30;100.00;86796.22;5070698;28;20196;-59
2024/01/04 00:14:45;;;;;;;85.07;28.00;;;;;;;-144.30;100.00;86772.34;5070896;28;20290;-58
2024/01/04 00:17:13;;;;;;;54.80;26.27;;;;;;;-144.30;100.00;86748.50;5070931;28;20608;-58
2024/01/04 00:19:40;;;;;;;92.73;29.63;;;;;;;-144.30;100.00;86768.38;5070351;28;20200;-58
2024/01/04 00:22:07;;;;;;;67.37;28.43;;;;;;;-144.30;100.00;86802.19;5070557;28;20207;-58
2024/01/04 00:24:34;;;;;;;86.63;28.47;;;;;;;-144.30;100.00;86738.56;5070384;28;20196;-58
2024/01/04 00:27:01;;;;;;;87.67;28.43;;;;;;;-144.30;100.00;86820.09;5070436;28;20196;-57
2024/01/04 00:29:28;;;;;;;63.83;27.13;;;;;;;-144.30;100.00;86796.22;5070616;28;20200;-57
2024/01/04 00:31:56;;;;;;;71.57;28.17;;;;;;;-144.30;100.00;86838.00;5070554;28;20671;-58
2024/01/04 00:34:24;;;;;;;64.43;26.87;;;;;;;-144.30;100.00;86818.09;5070449;28;20592;-57
2024/01/04 00:36:51;;;;;;;78.30;28.77;;;;;;;-144.30;100.00;86845.94;5070201;28;20214;-57
2024/01/04 00:39:18;;;;;;;77.37;26.77;;;;;;;-144.30;100.00;86800.19;5070192;28;20203;-58
2024/01/04 00:41:45;;;;;;;67.93;27.47;;;;;;;-144.30;100.00;86820.09;5070225;28;20288;-57
2024/01/04 00:44:12;;;;;;;73.73;27.07;;;;;;;-144.30;100.00;86824.06;5070211;28;20196;-58
2024/01/04 00:46:39;;;;;;;56.23;25.30;;;;;;;-144.30;100.00;86820.09;5070243;28;20195;-58
2024/01/04 00:49:06;;;;;;;56.13;25.53;;;;;;;-144.30;100.00;86802.19;5070313;28;20203;-58
2024/01/04 00:51:34;;;;;;;61.20;26.10;;;;;;;-144.30;100.00;86800.19;5069932;28;20188;-58
2024/01/04 00:54:01;;;;;;;55.17;26.27;;;;;;;-144.30;100.00;86818.09;5070265;28;20199;-58
2024/01/04 00:56:32;;;;;;;62.80;27.53;;;;;;;-144.30;100.00;86722.66;5070050;28;20195;-57
2024/01/04 00:58:59;;;;;;;51.37;25.87;;;;;;;-144.30;100.00;86806.16;5070193;28;20192;-58
2024/01/04 01:01:25;;;;;;;62.27;25.53;;;;;;;-144.30;100.00;86736.56;5069926;28;20257;-58
2024/01/04 01:03:52;;;;;;;49.17;24.67;;;;;;;-144.30;100.00;86818.09;5070111;28;20210;-57
2024/01/04 01:06:19;;;;;;;63.27;24.47;;;;;;;-144.30;100.00;86786.28;5070215;28;20202;-58
2024/01/04 01:08:48;;;;;;;61.50;24.73;;;;;;;-144.30;100.00;86812.13;5070555;28;20196;-58
2024/01/04 01:11:14;;;;;;;43.83;23.83;;;;;;;-144.30;100.00;86826.06;5070248;28;20200;-58
2024/01/04 01:13:41;;;;;;;45.37;24.43;;;;;;;-144.30;100.00;86828.03;5069547;28;20204;-58
2024/01/04 01:16:09;;;;;;;43.13;23.07;;;;;;;-144.30;100.00;86826.06;5070083;28;20551;-58
2024/01/04 01:18:36;;;;;;;53.60;25.77;;;;;;;-144.30;100.00;86845.94;5069985;28;20215;-58
2024/01/04 01:21:03;;;;;;;51.73;23.63;;;;;;;-144.30;100.00;86792.25;5070237;28;20769;-58
2024/01/04 01:23:30;;;;;;;62.37;24.30;;;;;;;-144.30;100.00;86824.06;5069866;28;20203;-58
2024/01/04 01:25:58;;;;;;;41.30;23.23;;;;;;;-144.30;100.00;86830.03;5069712;28;20199;-58
2024/01/04 01:28:25;;;;;;;44.13;24.47;;;;;;;-144.30;100.00;86839.97;5069916;28;20199;-57
2024/01/04 01:30:52;;;;;;;40.87;24.27;;;;;;;-144.30;100.00;86806.16;5070101;28;20199;-58
2024/01/04 01:33:19;;;;;;;43.63;23.90;;;;;;;-144.30;100.00;86824.06;5069873;28;20195;-58
2024/01/04 01:35:46;;;;;;;48.17;23.50;;;;;;;-144.30;100.00;86808.16;5069779;28;20206;-57
2024/01/04 01:38:13;;;;;;;54.63;26.27;;;;;;;-144.30;100.00;86806.16;5069680;28;20563;-57
2024/01/04 01:40:40;;;;;;;50.73;25.93;;;;;;;-144.30;100.00;86792.25;5069853;28;20599;-58
2024/01/04 01:43:08;;;;;;;57.73;27.17;;;;;;;-144.30;100.00;86808.16;5069778;28;20694;-57
2024/01/04 01:45:35;;;;;;;58.53;27.23;;;;;;;-144.30;100.00;86812.13;5069659;28;20200;-57
2024/01/04 01:48:04;;;;;;;58.77;27.57;;;;;;;-144.30;100.00;86832.03;5069832;28;20200;-58
2024/01/04 01:50:33;;;;;;;51.40;25.40;;;;;;;-144.30;100.00;86845.94;5069925;28;20193;-58
2024/01/04 01:53:00;;;;;;;56.07;26.73;;;;;;;-144.30;100.00;86810.16;5069755;28;20282;-58
2024/01/04 01:55:27;;;;;;;56.90;27.17;;;;;;;-144.30;100.00;86883.72;5069905;28;20577;-58
2024/01/04 01:57:55;;;;;;;60.60;28.73;;;;;;;-144.30;100.00;86824.06;5069853;28;20202;-57
2024/01/04 02:00:24;;;;;;;54.33;26.63;;;;;;;-144.30;100.00;86816.13;5069507;28;20267;-58
2024/01/04 02:02:51;;;;;;;54.60;27.00;;;;;;;-144.30;100.00;86627.19;5070020;28;20687;-59
2024/01/04 02:05:18;;;;;;;54.33;27.40;;;;;;;-144.30;100.00;86838.00;5069792;28;20588;-58
2024/01/04 02:07:45;;;;;;;81.83;31.10;;;;;;;-144.30;100.00;86832.03;5069746;28;20652;-58
2024/01/04 02:10:12;;;;;;;64.47;31.20;;;;;;;-144.30;100.00;86861.84;5069841;28;20286;-57
2024/01/04 02:12:39;;;;;;;57.13;29.10;;;;;;;-144.30;100.00;86828.03;5069560;28;20192;-57
2024/01/04 02:15:07;;;;;;;71.80;31.30;;;;;;;-144.30;100.00;86847.94;5069520;28;20671;-58
2024/01/04 02:17:36;;;;;;;69.47;31.57;;;;;;;-144.30;100.00;86742.53;5069644;28;20196;-57
2024/01/04 02:20:03;;;;;;;74.93;33.23;;;;;;;-144.30;100.00;86790.25;5069492;28;20198;-58
2024/01/04 02:22:30;;;;;;;79.13;33.57;;;;;;;-144.30;100.00;86839.97;5069311;28;20226;-57
2024/01/04 02:24:58;;;;;;;81.63;33.00;;;;;;;-144.30;100.00;86847.94;5069970;28;20206;-57
2024/01/04 02:27:25;;;;;;;84.60;34.90;;;;;;;-144.30;100.00;86849.91;5073473;28;20215;-57
2024/01/04 02:29:52;;;;;;;70.10;33.10;;;;;;;-144.30;100.00;86849.91;5072882;28;20202;-58
2024/01/04 02:32:19;;;;;;;78.77;32.67;;;;;;;-144.30;100.00;86871.81;5073127;28;20193;-56
2024/01/04 02:34:46;;;;;;;76.83;32.93;;;;;;;-144.30;100.00;86843.97;5072951;28;20665;-57
2024/01/04 02:37:13;;;;;;;77.60;34.30;;;;;;;-144.30;100.00;86839.97;5072760;28;20589;-59
2024/01/04 02:39:40;;;;;;;72.60;33.43;;;;;;;-144.30;100.00;86867.81;5072710;28;20250;-58
2024/01/04 02:42:08;;;;;;;67.23;32.83;;;;;;;-144.30;100.00;86808.16;5072461;28;20222;-58
2024/01/04 02:44:35;;;;;;;75.37;32.60;;;;;;;-144.30;100.00;86768.38;5072479;28;20195;-57
2024/01/04 02:47:02;;;;;;;73.43;31.80;;;;;;;-144.30;100.00;86808.16;5072741;28;20202;-57
2024/01/04 02:49:28;;;;;;;70.17;31.50;;;;;;;-144.30;100.00;86571.50;5072769;28;20235;-58
2024/01/04 02:51:55;;;;;;;69.67;32.17;;;;;;;-144.30;100.00;86838.00;5072666;28;20200;-58
2024/01/04 02:54:22;;;;;;;76.90;31.07;;;;;;;-144.30;100.00;86871.81;5072532;28;20196;-58
2024/01/04 02:56:49;;;;;;;63.00;30.03;;;;;;;-144.30;100.00;86812.13;5072403;28;20206;-59
2024/01/04 02:59:17;;;;;;;65.23;30.60;;;;;;;-144.30;100.00;86820.09;5072477;28;20222;-58
2024/01/04 03:01:48;;;;;;;61.67;30.30;;;;;;;-144.30;100.00;86859.88;5072183;28;20590;-57
2024/01/04 03:04:15;;;;;;;67.87;30.60;;;;;;;-144.30;100.00;86822.09;5072300;28;20196;-58
2024/01/04 03:06:42;;;;;;;64.37;29.23;;;;;;;-144.30;100.00;86768.38;5072404;28;20218;-58
2024/01/04 03:09:09;;;;;;;59.90;30.37;;;;;;;-144.30;100.00;86740.53;5072256;28;20232;-57
2024/01/04 03:11:36;;;;;;;58.90;28.73;;;;;;;-144.30;100.00;86845.94;5072259;28;20699;-57
2024/01/04 03:14:03;;;;;;;54.87;28.33;;;;;;;-144.30;100.00;86863.84;5072113;28;20199;-58
2024/01/04 03:16:32;;;;;;;61.27;29.60;;;;;;;-144.30;100.00;86885.72;5072263;28;20195;-56
2024/01/04 03:18:59;;;;;;;57.53;28.97;;;;;;;-144.30;100.00;86869.81;5072318;28;20588;-57
2024/01/04 03:21:25;;;;;;;64.03;29.83;;;;;;;-144.30;100.00;86871.81;5071879;28;20600;-58
2024/01/04 03:23:53;;;;;;;55.07;29.03;;;;;;;-144.30;100.00;86851.91;5072195;28;20541;-57
2024/01/04 03:26:19;;;;;;;54.10;27.93;;;;;;;-144.30;100.00;86867.81;5071801;28;20199;-57
2024/01/04 03:28:46;;;;;;;56.80;27.90;;;;;;;-144.30;100.00;86843.97;5071882;28;20221;-58
2024/01/04 03:31:14;;;;;;;50.13;27.93;;;;;;;-144.30;100.00;86877.75;5071668;28;20192;-57
2024/01/04 03:33:43;;;;;;;51.97;26.70;;;;;;;-144.30;100.00;86907.59;5071640;28;20664;-56
2024/01/04 03:36:12;;;;;;;49.63;27.37;;;;;;;-144.30;100.00;86863.84;5071595;28;20199;-59
2024/01/04 03:38:39;;;;;;;50.33;27.13;;;;;;;-144.30;100.00;86859.88;5071538;28;20280;-59
2024/01/04 03:41:06;;;;;;;54.23;28.83;;;;;;;-144.30;100.00;86891.69;5071518;28;20600;-57
2024/01/04 03:43:33;;;;;;;51.60;27.30;;;;;;;-144.30;100.00;86885.72;5071587;28;20203;-58
2024/01/04 03:46:00;;;;;;;52.97;27.67;;;;;;;-144.30;100.00;86883.72;5071734;28;20223;-59
2024/01/04 03:48:27;;;;;;;53.77;27.60;;;;;;;-144.30;100.00;86855.88;5071532;28;20203;-59
2024/01/04 03:50:56;;;;;;;53.30;28.20;;;;;;;-144.30;100.00;86845.94;5071366;28;20195;-57
2024/01/04 03:53:22;;;;;;;55.33;28.50;;;;;;;-144.30;100.00;86873.78;5071326;28;20196;-59
2024/01/04 03:55:49;;;;;;;48.63;27.83;;;;;;;-144.30;100.00;86877.75;5071020;28;20200;-57
2024/01/04 03:58:16;;;;;;;57.83;29.50;;;;;;;-144.30;100.00;86820.09;5071903;28;20203;-58
2024/01/04 04:00:43;;;;;;;51.27;27.60;;;;;;;-144.30;100.00;86903.63;5070948;28;20228;-58
2024/01/04 04:03:10;;;;;;;55.67;29.17;;;;;;;-144.30;100.00;86867.81;5070892;28;20215;-58
2024/01/04 04:05:37;;;;;;;56.97;29.23;;;;;;;-144.30;100.00;86855.88;5070985;28;20346;-57
2024/01/04 04:08:06;;;;;;;54.93;30.10;;;;;;;-144.30;100.00;86891.69;5071644;28;20756;-59
2024/01/04 04:10:33;;;;;;;57.03;28.00;;;;;;;-144.30;100.00;86889.69;5071248;28;20200;-58
2024/01/04 04:13:00;;;;;;;52.40;27.40;;;;;;;-144.30;100.00;86867.81;5071136;28;20298;-56
2024/01/04 04:15:26;;;;;;;52.20;28.53;;;;;;;-144.30;100.00;86943.41;5071087;28;20199;-57
2024/01/04 04:17:55;;;;;;;65.50;33.73;;;;;;;-144.30;100.00;86875.78;5070971;28;20196;-58
2024/01/04 04:20:22;;;;;;;67.43;36.63;;;;;;;-144.30;100.00;86865.84;5070631;28;20587;-58
2024/01/04 04:22:49;;;;;;;127.27;71.90;;;;;;;-144.30;100.00;86893.69;5070579;28;20224;-60
2024/01/04 04:25:17;;;;;;;99.43;51.77;;;;;;;-144.30;100.00;86895.66;5070467;28;20204;-59
2024/01/04 04:27:44;;;;;;;74.60;38.27;;;;;;;-144.30;100.00;86824.06;5069150;28;20198;-57
2024/01/04 04:30:11;;;;;;;74.17;38.60;;;;;;;-144.30;100.00;86901.63;5070019;28;20202;-57
2024/01/04 04:32:38;;;;;;;59.53;33.13;;;;;;;-144.30;100.00;86875.78;5069304;28;20191;-57
2024/01/04 04:35:06;;;;;;;63.57;35.13;;;;;;;-144.30;100.00;86859.88;5069908;28;20199;-57
2024/01/04 04:37:33;;;;;;;60.73;32.93;;;;;;;-144.30;100.00;86911.56;5070071;28;20675;-58
2024/01/04 04:39:59;;;;;;;51.67;28.97;;;;;;;-144.30;100.00;86875.78;5069674;28;20195;-57
2024/01/04 04:42:28;;;;;;;50.80;27.93;;;;;;;-144.30;100.00;86875.78;5069591;28;20219;-58
2024/01/04 04:44:55;;;;;;;46.50;26.00;;;;;;;-144.30;100.00;86859.88;5069443;28;20521;-56
2024/01/04 04:47:21;;;;;;;44.87;25.17;;;;;;;-144.30;100.00;86863.84;5069918;28;20584;-56
2024/01/04 04:49:48;;;;;;;41.57;24.47;;;;;;;-144.30;100.00;86760.44;5070002;28;20196;-57
2024/01/04 04:52:15;;;;;;;43.07;24.90;;;;;;;-144.30;100.00;86913.56;5070285;28;20573;-57
2024/01/04 04:54:42;;;;;;;41.70;23.77;;;;;;;-144.30;100.00;86867.81;5070010;28;20199;-57
2024/01/04 04:57:09;;;;;;;40.60;25.23;;;;;;;-144.30;100.00;86873.78;5070032;28;20203;-57
2024/01/04 04:59:37;;;;;;;43.60;24.27;;;;;;;-144.30;100.00;86826.06;5069699;28;20208;-56
2024/01/04 05:02:04;;;;;;;41.13;24.57;;;;;;;-144.30;100.00;86915.56;5069850;28;20258;-57
2024/01/04 05:04:31;;;;;;;39.70;23.30;;;;;;;-144.30;100.00;86883.72;5070110;28;20199;-57
2024/01/04 05:06:58;;;;;;;38.60;22.47;;;;;;;-144.30;100.00;86859.88;5069491;28;20233;-56
2024/01/04 05:09:25;;;;;;;39.03;23.30;;;;;;;-144.30;100.00;86889.69;5069571;28;20261;-57
2024/01/04 05:11:52;;;;;;;34.67;22.23;;;;;;;-144.30;100.00;86885.72;5069341;28;20242;-57
2024/01/04 05:14:19;;;;;;;39.43;22.80;;;;;;;-144.30;100.00;86867.81;5069900;28;20209;-58
2024/01/04 05:16:47;;;;;;;43.67;24.07;;;;;;;-144.30;100.00;86861.84;5070003;28;20635;-57
2024/01/04 05:19:14;;;;;;;37.53;23.73;;;;;;;-144.30;100.00;86834.00;5070109;28;20198;-57
2024/01/04 05:21:41;;;;;;;39.07;22.93;;;;;;;-144.30;100.00;86889.69;5070060;28;20219;-57
2024/01/04 05:24:08;;;;;;;36.30;23.00;;;;;;;-144.30;100.00;86843.97;5070141;28;20196;-57
2024/01/04 05:26:35;;;;;;;39.53;22.50;;;;;;;-144.30;100.00;86851.91;5070007;28;20588;-57
2024/01/04 05:29:02;;;;;;;43.97;24.83;;;;;;;-144.30;100.00;86859.88;5069790;28;20196;-58
2024/01/04 05:31:29;;;;;;;43.43;24.93;;;;;;;-144.30;100.00;86812.13;5069611;28;20212;-59
2024/01/04 05:33:57;;;;;;;45.57;26.13;;;;;;;-144.30;100.00;86859.88;5069964;28;20196;-58
2024/01/04 05:36:24;;;;;;;49.07;28.00;;;;;;;-144.30;100.00;86877.75;5069777;28;20646;-58
2024/01/04 05:38:51;;;;;;;46.27;28.43;;;;;;;-144.30;100.00;86875.78;5065390;28;20199;-58
2024/01/04 05:41:19;;;;;;;49.50;28.03;;;;;;;-144.30;100.00;86836.00;5068330;28;20211;-59
2024/01/04 05:43:46;;;;;;;49.37;28.97;;;;;;;-144.30;100.00;86885.72;5065995;28;20210;-58
2024/01/04 05:46:12;;;;;;;53.10;29.73;;;;;;;-144.30;100.00;86845.94;5068047;28;20199;-58
2024/01/04 05:48:39;;;;;;;51.73;29.83;;;;;;;-144.30;100.00;86788.28;5069154;28;20265;-57
2024/01/04 05:51:08;;;;;;;46.83;28.57;;;;;;;-144.30;100.00;86855.88;5068534;28;20204;-57
2024/01/04 05:53:36;;;;;;;44.23;26.40;;;;;;;-144.30;100.00;86873.78;5068191;28;20192;-56
2024/01/04 05:56:03;;;;;;;47.77;27.07;;;;;;;-144.30;100.00;86903.63;5068566;28;20620;-57
2024/01/04 05:58:30;;;;;;;46.67;28.03;;;;;;;-144.30;100.00;86869.81;5069062;28;20234;-57
2024/01/04 06:00:57;;;;;;;48.37;29.27;;;;;;;-144.30;100.00;86875.78;5070456;28;20223;-56
2024/01/04 06:03:24;;;;;;;49.17;28.47;;;;;;;-144.30;100.00;86865.84;5071847;28;20318;-57
2024/01/04 06:05:52;;;;;;;46.90;26.70;;;;;;;-144.30;100.00;86845.94;5072581;28;20286;-57
2024/01/04 06:08:20;;;;;;;44.03;24.03;;;;;;;-144.30;100.00;86851.91;5078734;28;20595;-56
2024/01/04 06:10:47;;;;;;;40.93;24.07;;;;;;;-144.30;100.00;86822.09;5092650;28;20191;-56
2024/01/04 06:13:14;;;;;;;38.33;23.47;;;;;;;-144.30;100.00;86859.88;5092617;28;20191;-57
2024/01/04 06:15:41;;;;;;;45.90;27.53;;;;;;;-144.30;100.00;86853.91;5093267;28;20674;-56
2024/01/04 06:18:08;;;;;;;49.67;29.70;;;;;;;-144.30;100.00;86816.13;5093107;28;20205;-55
2024/01/04 06:20:35;;;;;;;50.07;28.10;;;;;;;-144.30;100.00;86816.13;5093045;28;20667;-56
2024/01/04 06:23:02;;;;;;;44.00;25.33;;;;;;;-144.30;100.00;86824.06;5092918;28;20686;-56
2024/01/04 06:25:30;;;;;;;43.80;24.90;;;;;;;-144.30;100.00;86776.34;5092916;28;20281;-59
2024/01/04 06:27:58;;;;;;;47.73;27.60;;;;;;;-144.30;100.00;86832.03;5092819;28;20233;-56
2024/01/04 06:30:24;;;;;;;51.20;28.57;;;;;;;-144.30;100.00;86796.22;5089742;28;20656;-56
2024/01/04 06:32:51;;;;;;;58.10;30.80;;;;;;;-144.30;100.00;86796.22;5072759;28;20202;-57
2024/01/04 06:35:18;;;;;;;55.67;31.30;;;;;;;-144.30;100.00;86736.56;5072376;28;20210;-58
2024/01/04 06:37:45;;;;;;;62.83;33.57;;;;;;;-144.30;100.00;86762.41;5072165;28;20212;-57
2024/01/04 06:40:13;;;;;;;62.60;35.47;;;;;;;-144.30;100.00;86774.34;5072514;28;20195;-57
2024/01/04 06:42:42;;;;;;;78.47;45.73;;;;;;;-144.30;100.00;86772.34;5072617;28;20601;-56
2024/01/04 06:45:09;;;;;;;113.33;68.57;;;;;;;-144.30;100.00;86780.31;5072376;28;20207;-58
2024/01/04 06:47:36;;;;;;;89.10;52.47;;;;;;;-144.30;100.00;86742.53;5072015;28;20205;-57
2024/01/04 06:50:04;;;;;;;66.83;42.70;;;;;;;-144.30;100.00;86734.56;5072307;28;20206;-54
2024/01/04 06:52:30;;;;;;;72.73;44.60;;;;;;;-144.30;100.00;86726.63;5072107;28;20196;-56
2024/01/04 06:54:57;;;;;;;65.70;42.50;;;;;;;-144.30;100.00;86720.66;5071923;28;20204;-56
2024/01/04 06:57:24;;;;;;;55.23;34.90;;;;;;;-144.30;100.00;86742.53;5071904;28;20192;-55
2024/01/04 06:59:53;;;;;;;58.03;35.10;;;;;;;-144.30;100.00;86684.84;5071800;28;20702;-57
2024/01/04 07:02:20;;;;;;;55.73;34.23;;;;;;;-144.30;100.00;86712.69;5071928;28;20230;-58
2024/01/04 07:04:47;;;;;;;60.40;33.57;;;;;;;-144.30;100.00;86680.88;5071754;28;20231;-55
2024/01/04 07:07:14;;;;;;;71.90;43.03;;;;;;;-144.30;100.00;86724.63;5072144;28;20565;-55
2024/01/04 07:09:41;;;;;;;72.27;41.53;;;;;;;-144.30;100.00;86692.81;5072113;28;20196;-56
2024/01/04 07:12:08;;;;;;;59.27;35.90;;;;;;;-144.30;100.00;86680.88;5070214;28;20219;-58
2024/01/04 07:14:38;;;;;;;54.60;33.47;;;;;;;-144.30;100.00;86720.66;5070980;28;20204;-58
2024/01/04 07:17:07;;;;;;;61.90;34.00;;;;;;;-144.30;100.00;86746.50;5071420;28;20254;-58
2024/01/04 07:19:34;;;;;;;54.40;31.83;;;;;;;-144.30;100.00;86668.94;5071484;28;20235;-58
2024/01/04 07:22:02;;;;;;;59.37;32.80;;;;;;;-144.30;100.00;86672.94;5071360;28;20195;-57
2024/01/04 07:24:29;;;;;;;54.77;32.10;;;;;;;-144.30;100.00;86666.97;5071310;28;20196;-59
2024/01/04 07:26:55;;;;;;;47.67;29.60;;;;;;;-144.30;100.00;86704.75;5070993;28;20207;-57
2024/01/04 07:29:23;;;;;;;47.60;27.90;;;;;;;-144.30;100.00;86690.81;5071403;28;20204;-58
2024/01/04 07:31:50;;;;;;;46.17;27.97;;;;;;;-144.30;100.00;86672.94;5071055;28;20196;-59
2024/01/04 07:34:18;;;;;;;43.43;27.33;;;;;;;-144.30;100.00;86674.91;5070638;28;20662;-59
2024/01/04 07:36:45;;;;;;;43.17;26.10;;;;;;;-144.30;100.00;86627.19;5070769;28;20629;-58
2024/01/04 07:39:12;;;;;;;39.40;25.73;;;;;;;-144.30;100.00;86662.97;5071507;28;20624;-55
2024/01/04 07:41:39;;;;;;;41.00;25.67;;;;;;;-144.30;100.00;86625.19;5070948;28;20200;-57
2024/01/04 07:44:06;;;;;;;42.93;25.37;;;;;;;-144.30;100.00;86633.16;5070753;28;20215;-57
2024/01/04 07:46:33;;;;;;;35.97;24.47;;;;;;;-144.30;100.00;86589.41;5070143;28;20202;-57
2024/01/04 07:49:00;;;;;;;42.53;23.53;;;;;;;-144.30;100.00;86609.28;5070999;28;20192;-58
2024/01/04 07:51:28;;;;;;;41.10;24.40;;;;;;;-144.30;100.00;86595.38;5070816;28;20583;-58
2024/01/04 07:53:55;;;;;;;37.23;21.60;;;;;;;-144.30;100.00;86599.34;5070925;28;20595;-59
2024/01/04 07:56:22;;;;;;;34.27;21.17;;;;;;;-144.30;99.60;86593.38;5070419;28;20525;-58
2024/01/04 07:58:49;;;;;;;31.90;20.30;;;;;;;-144.30;99.13;86585.44;5070577;28;20200;-58
2024/01/04 08:01:16;;;;;;;41.93;22.40;;;;;;;-144.30;97.69;86563.56;5070809;28;20759;-56
2024/01/04 08:03:43;;;;;;;37.17;23.20;;;;;;;-144.30;96.76;86541.69;5070782;28;20599;-56
2024/01/04 08:06:10;;;;;;;42.13;23.40;;;;;;;-144.30;96.00;86480.03;5070464;28;20200;-56
2024/01/04 08:08:39;;;;;;;46.03;24.83;;;;;;;-144.30;95.75;86525.75;5070408;28;20188;-55
2024/01/04 08:11:05;;;;;;;46.50;26.40;;;;;;;-144.30;95.47;86523.78;5070796;28;20192;-56
2024/01/04 08:13:32;;;;;;;61.57;25.73;;;;;;;-144.30;95.42;86513.84;5070393;28;20283;-56
2024/01/04 08:16:00;;;;;;;44.27;24.97;;;;;;;-144.30;95.50;86547.66;5070055;28;20200;-55
2024/01/04 08:18:28;;;;;;;53.90;29.93;;;;;;;-144.30;95.30;86515.81;5070635;28;20222;-55
2024/01/04 08:20:55;;;;;;;49.90;27.43;;;;;;;-144.30;95.06;86474.06;5070469;28;20316;-56
2024/01/04 08:23:21;;;;;;;42.53;25.27;;;;;;;-144.30;93.42;86478.03;5069533;28;20733;-56
2024/01/04 08:25:50;;;;;;;36.53;22.50;;;;;;;-144.30;93.78;86523.78;5070196;28;20760;-54
2024/01/04 08:28:17;;;;;;;36.90;21.30;;;;;;;-144.30;93.28;86501.91;5057394;28;20197;-55
2024/01/04 08:30:43;;;;;;;33.50;19.43;;;;;;;-144.30;91.87;86446.22;5050695;28;20202;-58
2024/01/04 08:33:10;;;;;;;33.73;20.60;;;;;;;-144.30;91.86;86446.22;5050384;28;20204;-58
2024/01/04 08:35:37;;;;;;;32.80;20.73;;;;;;;-144.30;92.64;86482.03;5050154;28;20200;-57
2024/01/04 08:38:04;;;;;;;37.07;23.07;;;;;;;-144.30;92.79;86420.38;5050128;28;20719;-56
2024/01/04 08:40:31;;;;;;;41.73;25.03;;;;;;;-144.30;92.23;86470.09;5050228;28;20196;-58
2024/01/04 08:43:00;;;;;;;45.60;27.23;;;;;;;-144.30;91.93;86412.41;5050320;28;20216;-57
2024/01/04 08:45:26;;;;;;;45.17;27.47;;;;;;;-144.30;92.48;86426.34;5050279;28;20196;-56
2024/01/04 08:47:53;;;;;;;40.07;24.50;;;;;;;-144.30;91.85;86434.28;5064115;28;20282;-57
2024/01/04 08:50:20;;;;;;;38.77;20.57;;;;;;;-144.30;91.70;86354.75;5069681;28;20206;-57
2024/01/04 08:52:47;;;;;;;33.93;19.63;;;;;;;-144.30;91.67;86438.28;5070133;28;20279;-56
2024/01/04 08:55:14;;;;;;;33.90;21.00;;;;;;;-144.30;91.38;86438.28;5069291;28;20206;-56
2024/01/04 08:57:41;;;;;;;40.27;23.20;;;;;;;-144.30;90.54;86398.50;5068387;28;20538;-57
2024/01/04 09:00:11;;;;;;;39.87;25.10;;;;;;;-144.30;90.29;86454.19;5069478;28;20568;-56
2024/01/04 09:02:38;;;;;;;31.77;21.37;;;;;;;-144.30;90.29;86412.41;5067258;28;20589;-58
2024/01/04 09:05:06;;;;;;;36.77;21.37;;;;;;;-144.30;90.87;86476.06;5069750;28;20208;-58
2024/01/04 09:07:33;;;;;;;35.87;22.97;;;;;;;-144.30;90.74;86436.28;5068804;28;20192;-58
2024/01/04 09:10:00;;;;;;;48.93;23.40;;;;;;;-144.30;90.93;86414.41;5069380;28;20202;-58
2024/01/04 09:12:27;;;;;;;34.43;22.60;;;;;;;-144.30;90.51;86390.53;5069606;28;20540;-58
2024/01/04 09:14:54;;;;;;;43.57;22.27;;;;;;;-144.30;90.22;86362.72;5069541;28;20192;-56
2024/01/04 09:17:22;;;;;;;32.17;20.53;;;;;;;-144.30;89.67;86382.59;5069595;28;20192;-56
2024/01/04 09:19:50;;;;;;;35.13;21.13;;;;;;;-144.30;89.28;86344.81;5070057;28;20698;-55
2024/01/04 09:22:17;;;;;;;33.03;20.83;;;;;;;-144.30;89.57;86458.16;5069874;28;20221;-58
2024/01/04 09:24:44;;;;;;;31.30;20.33;;;;;;;-144.30;89.55;86350.78;5069791;28;20223;-58
2024/01/04 09:27:12;;;;;;;37.10;20.90;;;;;;;-144.30;89.35;86352.75;5069532;28;20196;-57
2024/01/04 09:29:41;;;;;;;46.97;21.33;;;;;;;-144.30;89.44;86426.34;5069676;28;20326;-56
2024/01/04 09:32:08;;;;;;;37.73;24.83;;;;;;;-144.30;89.80;86376.63;5069467;28;20192;-55
2024/01/04 09:34:36;;;;;;;43.73;26.57;;;;;;;-144.30;90.24;86362.72;5071026;28;20192;-56
2024/01/04 09:37:04;;;;;;;43.93;27.07;;;;;;;-144.30;90.84;86394.53;5073372;28;20199;-55
2024/01/04 09:39:31;;;;;;;54.40;29.07;;;;;;;-144.30;91.36;86378.63;5068108;28;20599;-56
2024/01/04 09:41:59;;;;;;;46.80;27.90;;;;;;;-144.30;92.10;86440.25;5064189;28;20208;-56
2024/01/04 09:44:25;;;;;;;56.27;29.83;;;;;;;-144.30;92.88;86394.53;5056064;28;20227;-57
2024/01/04 09:46:55;;;;;;;46.43;28.23;;;;;;;-144.30;93.06;86384.59;5067421;28;20283;-57
2024/01/04 09:49:22;;;;;;;43.90;26.20;;;;;;;-144.30;93.20;86311.00;5072710;28;20603;-56
2024/01/04 09:51:50;;;;;;;46.57;25.23;;;;;;;-144.30;93.29;86342.81;5068195;28;20668;-56
2024/01/04 09:54:19;;;;;;;42.53;24.60;;;;;;;-144.30;93.23;86398.50;5066024;28;20203;-55
2024/01/04 09:56:49;;;;;;;43.17;24.03;;;;;;;-144.30;93.27;86374.63;5073385;28;20196;-58
2024/01/04 09:59:16;;;;;;;36.10;22.67;;;;;;;-144.30;93.22;86350.78;5073118;28;20596;-58
2024/01/04 10:01:43;;;;;;;35.80;22.67;;;;;;;-144.30;92.96;86380.59;5072511;28;20234;-57
2024/01/04 10:04:12;;;;;;;28.77;20.30;;;;;;;-144.30;92.97;86376.63;5072800;28;20618;-55
2024/01/04 10:06:41;;;;;;;34.83;22.03;;;;;;;-144.30;92.95;86251.34;5072996;28;20192;-55
2024/01/04 10:09:15;;;;;;;32.17;21.27;;;;;;;-144.30;93.51;86322.94;5072447;28;20200;-57
2024/01/04 10:11:50;;;;;;;32.77;22.40;;;;;;;-144.30;93.80;86400.50;5072794;28;20270;-57
2024/01/04 10:14:17;;;;;;;35.83;21.77;;;;;;;-144.30;93.94;86358.72;5072877;28;20294;-57
2024/01/04 10:16:46;;;;;;;35.53;21.50;;;;;;;-144.30;93.55;86416.41;5073056;28;20561;-57
2024/01/04 10:19:13;;;;;;;34.83;20.93;;;;;;;-144.30;93.43;86394.53;5080217;28;20203;-57
2024/01/04 10:21:40;;;;;;;33.03;21.37;;;;;;;-144.30;93.56;86384.59;5066597;28;20683;-59
2024/01/04 10:24:07;;;;;;;33.63;19.70;;;;;;;-144.30;94.53;86342.81;5064051;28;20298;-59
2024/01/04 10:26:35;;;;;;;29.20;18.73;;;;;;;-144.30;93.86;86334.88;5070519;28;20655;-59
2024/01/04 10:29:02;;;;;;;24.13;16.90;;;;;;;-144.30;91.91;86362.72;5091981;28;20203;-58
2024/01/04 10:31:29;;;;;;;26.47;18.20;;;;;;;-144.30;92.30;86354.75;5093061;28;20199;-59
2024/01/04 10:33:57;;;;;;;28.97;17.47;;;;;;;-144.30;92.13;86402.47;5093048;28;20191;-59
2024/01/04 10:36:28;;;;;;;25.97;16.27;;;;;;;-144.30;91.24;86313.00;5092735;28;20636;-58
2024/01/04 10:38:56;;;;;;;21.00;15.93;;;;;;;-144.30;91.43;86305.03;5093075;28;20332;-58
2024/01/04 10:41:22;;;;;;;22.07;15.90;;;;;;;-144.30;90.38;86370.66;5092695;28;20600;-58
2024/01/04 10:43:51;;;;;;;24.67;14.07;;;;;;;-144.30;89.99;86293.09;5092613;28;20225;-58
2024/01/04 10:46:18;;;;;;;14.93;11.93;;;;;;;-144.30;88.76;86362.72;5092145;28;20663;-59
2024/01/04 10:48:46;;;;;;;17.27;11.33;;;;;;;-144.30;88.38;86314.97;5092547;28;20191;-58
2024/01/04 10:51:16;;;;;;;15.80;12.07;;;;;;;-144.30;88.06;86314.97;5092553;28;20202;-58
2024/01/04 10:53:43;;;;;;;25.17;13.33;;;;;;;-144.30;88.50;86342.81;5092508;28;20214;-60
2024/01/04 10:56:10;;;;;;;21.13;13.40;;;;;;;-144.30;88.59;86324.94;5092317;28;20199;-58